sensor_id;sensor_type;location;lat;lon;timestamp;pressure;altitude;pressure_sealevel;temperature;humidity
51617;BME280;37697;52.588;13.394;2023-07-13T00:04:37;100826.72;;;16.34;66.02
51617;BME280;37697;52.588;13.394;2023-07-13T00:09:43;100816.55;;;16.34;66.35
51617;BME280;37697;52.588;13.394;2023-07-13T00:14:48;100813.54;;;16.35;66.64
51617;BME280;37697;52.588;13.394;2023-07-13T00:19:56;100811.15;;;16.35;66.87
51617;BME280;37697;52.588;13.394;2023-07-13T00:25:02;100813.84;;;16.34;67.22
51617;BME280;37697;52.588;13.394;2023-07-13T00:30:09;100820.02;;;16.29;67.11
51617;BME280;37697;52.588;13.394;2023-07-13T00:35:16;100826.13;;;16.23;67.16
51617;BME280;37697;52.588;13.394;2023-07-13T00:40:22;100827.34;;;16.17;67.53
51617;BME280;37697;52.588;13.394;2023-07-13T00:46:10;100819.36;;;16.16;67.73
51617;BME280;37697;52.588;13.394;2023-07-13T00:51:17;100820.65;;;16.10;67.82
51617;BME280;37697;52.588;13.394;2023-07-13T00:56:24;100823.80;;;16.01;67.92
51617;BME280;37697;52.588;13.394;2023-07-13T01:01:30;100820.29;;;15.96;68.29
51617;BME280;37697;52.588;13.394;2023-07-13T01:06:36;100812.65;;;15.90;68.41
51617;BME280;37697;52.588;13.394;2023-07-13T01:11:42;100819.12;;;15.85;68.59
51617;BME280;37697;52.588;13.394;2023-07-13T01:16:48;100825.14;;;15.76;68.67
51617;BME280;37697;52.588;13.394;2023-07-13T01:21:54;100827.33;;;15.66;69.03
51617;BME280;37697;52.588;13.394;2023-07-13T01:26:59;100830.91;;;15.59;69.34
51617;BME280;37697;52.588;13.394;2023-07-13T01:32:06;100829.80;;;15.52;69.45
51617;BME280;37697;52.588;13.394;2023-07-13T01:37:13;100835.77;;;15.47;69.75
51617;BME280;37697;52.588;13.394;2023-07-13T01:42:19;100830.35;;;15.41;69.82
51617;BME280;37697;52.588;13.394;2023-07-13T01:47:24;100827.00;;;15.30;70.12
51617;BME280;37697;52.588;13.394;2023-07-13T01:52:31;100824.20;;;15.24;70.42
51617;BME280;37697;52.588;13.394;2023-07-13T01:57:37;100825.03;;;15.17;70.56
51617;BME280;37697;52.588;13.394;2023-07-13T02:02:42;100821.79;;;15.12;70.86
51617;BME280;37697;52.588;13.394;2023-07-13T02:07:50;100817.98;;;15.06;70.97
51617;BME280;37697;52.588;13.394;2023-07-13T02:12:56;100825.12;;;15.01;71.06
51617;BME280;37697;52.588;13.394;2023-07-13T02:18:02;100824.00;;;14.95;71.20
51617;BME280;37697;52.588;13.394;2023-07-13T02:23:09;100821.24;;;14.89;71.78
51617;BME280;37697;52.588;13.394;2023-07-13T02:28:14;100829.27;;;14.80;71.78
51617;BME280;37697;52.588;13.394;2023-07-13T02:33:20;100834.62;;;14.74;72.13
51617;BME280;37697;52.588;13.394;2023-07-13T02:38:25;100818.45;;;14.69;72.37
51617;BME280;37697;52.588;13.394;2023-07-13T02:43:31;100813.48;;;14.63;72.65
51617;BME280;37697;52.588;13.394;2023-07-13T02:48:37;100812.56;;;14.56;73.01
51617;BME280;37697;52.588;13.394;2023-07-13T02:53:43;100825.72;;;14.48;73.19
51617;BME280;37697;52.588;13.394;2023-07-13T02:58:48;100827.88;;;14.44;73.60
51617;BME280;37697;52.588;13.394;2023-07-13T03:03:54;100835.33;;;14.42;73.51
51617;BME280;37697;52.588;13.394;2023-07-13T03:08:59;100843.66;;;14.41;73.92
51617;BME280;37697;52.588;13.394;2023-07-13T03:14:05;100858.55;;;14.34;74.06
51617;BME280;37697;52.588;13.394;2023-07-13T03:19:10;100858.65;;;14.30;74.14
51617;BME280;37697;52.588;13.394;2023-07-13T03:24:16;100865.00;;;14.25;74.50
51617;BME280;37697;52.588;13.394;2023-07-13T03:29:21;100867.09;;;14.22;74.89
51617;BME280;37697;52.588;13.394;2023-07-13T03:34:27;100868.13;;;14.21;74.87
51617;BME280;37697;52.588;13.394;2023-07-13T03:39:32;100871.80;;;14.20;75.18
51617;BME280;37697;52.588;13.394;2023-07-13T03:44:38;100876.90;;;14.26;75.78
51617;BME280;37697;52.588;13.394;2023-07-13T03:49:44;100878.30;;;14.32;76.17
51617;BME280;37697;52.588;13.394;2023-07-13T03:54:51;100877.00;;;14.40;76.27
51617;BME280;37697;52.588;13.394;2023-07-13T03:59:56;100879.52;;;14.50;76.44
51617;BME280;37697;52.588;13.394;2023-07-13T04:05:02;100881.84;;;14.56;76.80
51617;BME280;37697;52.588;13.394;2023-07-13T04:10:08;100885.31;;;14.62;76.95
51617;BME280;37697;52.588;13.394;2023-07-13T04:15:14;100887.13;;;14.69;76.99
51617;BME280;37697;52.588;13.394;2023-07-13T04:20:20;100890.91;;;14.75;76.96
51617;BME280;37697;52.588;13.394;2023-07-13T04:25:25;100890.60;;;14.85;77.23
51617;BME280;37697;52.588;13.394;2023-07-13T04:30:31;100892.30;;;14.99;77.33
51617;BME280;37697;52.588;13.394;2023-07-13T04:35:37;100891.35;;;15.34;76.75
51617;BME280;37697;52.588;13.394;2023-07-13T04:40:44;100898.55;;;15.47;76.99
51617;BME280;37697;52.588;13.394;2023-07-13T04:45:49;100910.71;;;15.61;76.85
51617;BME280;37697;52.588;13.394;2023-07-13T04:50:59;100915.39;;;15.74;76.95
51617;BME280;37697;52.588;13.394;2023-07-13T04:56:05;100924.03;;;15.93;76.32
51617;BME280;37697;52.588;13.394;2023-07-13T05:01:11;100921.69;;;16.75;73.92
51617;BME280;37697;52.588;13.394;2023-07-13T05:06:17;100918.50;;;17.65;71.81
51617;BME280;37697;52.588;13.394;2023-07-13T05:11:22;100917.30;;;18.38;70.05
51617;BME280;37697;52.588;13.394;2023-07-13T05:16:28;100917.35;;;18.91;68.64
51617;BME280;37697;52.588;13.394;2023-07-13T05:21:33;100922.43;;;19.37;67.83
51617;BME280;37697;52.588;13.394;2023-07-13T05:26:39;100923.61;;;19.30;67.56
51617;BME280;37697;52.588;13.394;2023-07-13T05:31:44;100925.23;;;19.25;67.82
51617;BME280;37697;52.588;13.394;2023-07-13T05:36:49;100935.26;;;19.24;67.76
51617;BME280;37697;52.588;13.394;2023-07-13T05:41:55;100934.81;;;19.41;67.05
51617;BME280;37697;52.588;13.394;2023-07-13T05:47:00;100939.61;;;19.82;66.03
51617;BME280;37697;52.588;13.394;2023-07-13T05:52:07;100935.96;;;20.24;65.97
51617;BME280;37697;52.588;13.394;2023-07-13T05:57:12;100934.29;;;20.31;64.96
51617;BME280;37697;52.588;13.394;2023-07-13T06:02:17;100937.33;;;20.31;64.69
51617;BME280;37697;52.588;13.394;2023-07-13T06:07:23;100937.48;;;20.44;64.53
51617;BME280;37697;52.588;13.394;2023-07-13T06:12:28;100941.31;;;20.59;63.83
51617;BME280;37697;52.588;13.394;2023-07-13T06:17:34;100940.65;;;20.76;63.91
51617;BME280;37697;52.588;13.394;2023-07-13T06:22:39;100939.89;;;20.85;62.88
51617;BME280;37697;52.588;13.394;2023-07-13T06:27:45;100935.23;;;20.89;62.35
51617;BME280;37697;52.588;13.394;2023-07-13T06:32:50;100938.63;;;20.87;62.08
51617;BME280;37697;52.588;13.394;2023-07-13T06:37:56;100936.48;;;20.99;62.06
51617;BME280;37697;52.588;13.394;2023-07-13T06:43:02;100935.52;;;21.15;61.56
51617;BME280;37697;52.588;13.394;2023-07-13T06:48:07;100938.67;;;21.35;60.94
51617;BME280;37697;52.588;13.394;2023-07-13T06:53:14;100938.05;;;21.53;60.99
51617;BME280;37697;52.588;13.394;2023-07-13T06:58:21;100935.63;;;21.65;60.60
51617;BME280;37697;52.588;13.394;2023-07-13T07:03:26;100928.73;;;21.79;59.57
51617;BME280;37697;52.588;13.394;2023-07-13T07:08:32;100927.20;;;22.10;59.24
51617;BME280;37697;52.588;13.394;2023-07-13T07:13:37;100919.91;;;22.48;58.27
51617;BME280;37697;52.588;13.394;2023-07-13T07:18:42;100920.54;;;22.78;57.20
51617;BME280;37697;52.588;13.394;2023-07-13T07:23:48;100922.60;;;22.97;55.93
51617;BME280;37697;52.588;13.394;2023-07-13T07:28:53;100927.42;;;23.11;55.51
51617;BME280;37697;52.588;13.394;2023-07-13T07:34:19;100937.92;;;23.17;54.80
51617;BME280;37697;52.588;13.394;2023-07-13T07:39:24;100939.13;;;23.41;54.53
51617;BME280;37697;52.588;13.394;2023-07-13T07:44:30;100937.88;;;23.70;53.98
51617;BME280;37697;52.588;13.394;2023-07-13T07:49:36;100939.98;;;24.02;53.18
51617;BME280;37697;52.588;13.394;2023-07-13T07:54:41;100945.63;;;24.26;52.16
51617;BME280;37697;52.588;13.394;2023-07-13T07:59:49;100940.77;;;24.08;51.54
51617;BME280;37697;52.588;13.394;2023-07-13T08:04:58;100942.35;;;24.05;50.86
51617;BME280;37697;52.588;13.394;2023-07-13T08:10:07;100947.36;;;24.11;49.88
51617;BME280;37697;52.588;13.394;2023-07-13T08:15:15;100948.21;;;23.75;49.75
51617;BME280;37697;52.588;13.394;2023-07-13T08:20:21;100948.54;;;23.77;50.25
51617;BME280;37697;52.588;13.394;2023-07-13T08:25:26;100945.57;;;23.77;50.35
51617;BME280;37697;52.588;13.394;2023-07-13T08:30:32;100945.67;;;23.98;50.66
51617;BME280;37697;52.588;13.394;2023-07-13T08:35:37;100956.34;;;23.96;50.07
51617;BME280;37697;52.588;13.394;2023-07-13T08:40:43;100960.65;;;23.90;49.98
51617;BME280;37697;52.588;13.394;2023-07-13T08:45:52;100961.36;;;23.74;49.64
51617;BME280;37697;52.588;13.394;2023-07-13T08:51:04;100963.01;;;23.60;49.29
51617;BME280;37697;52.588;13.394;2023-07-13T08:56:18;100963.77;;;23.47;48.80
51617;BME280;37697;52.588;13.394;2023-07-13T09:01:29;100959.67;;;23.56;48.83
51617;BME280;37697;52.588;13.394;2023-07-13T09:06:45;100964.82;;;23.65;48.54
51617;BME280;37697;52.588;13.394;2023-07-13T09:12:07;100957.06;;;23.97;49.08
51617;BME280;37697;52.588;13.394;2023-07-13T09:17:19;100962.80;;;24.34;48.25
51617;BME280;37697;52.588;13.394;2023-07-13T09:22:27;100960.23;;;24.22;47.66
51617;BME280;37697;52.588;13.394;2023-07-13T09:27:36;100958.71;;;24.63;47.35
51617;BME280;37697;52.588;13.394;2023-07-13T09:32:48;100956.38;;;24.79;45.95
51617;BME280;37697;52.588;13.394;2023-07-13T09:38:01;100949.62;;;25.02;46.13
51617;BME280;37697;52.588;13.394;2023-07-13T09:43:09;100951.34;;;25.35;45.44
51617;BME280;37697;52.588;13.394;2023-07-13T09:48:17;100956.14;;;25.72;45.75
51617;BME280;37697;52.588;13.394;2023-07-13T09:53:23;100962.50;;;25.84;43.92
51617;BME280;37697;52.588;13.394;2023-07-13T09:58:31;100960.24;;;25.84;43.82
51617;BME280;37697;52.588;13.394;2023-07-13T10:03:37;100955.51;;;26.04;43.56
51617;BME280;37697;52.588;13.394;2023-07-13T10:08:45;100957.17;;;26.24;42.05
51617;BME280;37697;52.588;13.394;2023-07-13T10:13:54;100955.72;;;26.27;41.54
51617;BME280;37697;52.588;13.394;2023-07-13T10:19:02;100957.81;;;25.70;41.64
51617;BME280;37697;52.588;13.394;2023-07-13T10:24:17;100958.91;;;25.14;41.85
51617;BME280;37697;52.588;13.394;2023-07-13T10:29:25;100952.78;;;25.07;41.89
51617;BME280;37697;52.588;13.394;2023-07-13T10:34:32;100956.77;;;24.96;41.98
51617;BME280;37697;52.588;13.394;2023-07-13T10:39:39;100963.90;;;25.10;43.25
51617;BME280;37697;52.588;13.394;2023-07-13T10:44:45;100959.42;;;25.52;43.19
51617;BME280;37697;52.588;13.394;2023-07-13T10:49:53;100961.95;;;25.74;42.53
51617;BME280;37697;52.588;13.394;2023-07-13T10:55:00;100962.75;;;25.91;42.28
51617;BME280;37697;52.588;13.394;2023-07-13T11:00:17;100960.89;;;25.86;41.82
51617;BME280;37697;52.588;13.394;2023-07-13T11:05:28;100954.93;;;26.09;41.78
51617;BME280;37697;52.588;13.394;2023-07-13T11:10:53;100947.31;;;26.32;40.79
51617;BME280;37697;52.588;13.394;2023-07-13T11:15:59;100953.25;;;26.44;39.07
51617;BME280;37697;52.588;13.394;2023-07-13T11:21:19;100953.33;;;26.44;37.91
51617;BME280;37697;52.588;13.394;2023-07-13T11:26:50;100955.77;;;26.42;38.46
51617;BME280;37697;52.588;13.394;2023-07-13T11:31:57;100948.20;;;26.34;37.91
51617;BME280;37697;52.588;13.394;2023-07-13T11:37:08;100948.48;;;26.51;38.03
51617;BME280;37697;52.588;13.394;2023-07-13T11:42:19;100950.71;;;26.54;38.10
51617;BME280;37697;52.588;13.394;2023-07-13T11:47:26;100947.95;;;26.68;37.89
51617;BME280;37697;52.588;13.394;2023-07-13T11:52:35;100943.56;;;26.77;37.83
51617;BME280;37697;52.588;13.394;2023-07-13T11:57:44;100937.86;;;27.03;37.43
51617;BME280;37697;52.588;13.394;2023-07-13T12:02:53;100936.97;;;27.18;36.84
51617;BME280;37697;52.588;13.394;2023-07-13T12:07:59;100938.96;;;27.24;36.40
51617;BME280;37697;52.588;13.394;2023-07-13T12:13:13;100947.50;;;26.98;36.16
51617;BME280;37697;52.588;13.394;2023-07-13T12:18:21;100950.77;;;26.93;35.94
51617;BME280;37697;52.588;13.394;2023-07-13T12:23:29;100948.72;;;26.96;36.39
51617;BME280;37697;52.588;13.394;2023-07-13T12:28:37;100954.36;;;26.98;35.96
51617;BME280;37697;52.588;13.394;2023-07-13T12:33:43;100945.90;;;26.95;36.57
51617;BME280;37697;52.588;13.394;2023-07-13T12:38:49;100945.09;;;26.95;36.44
51617;BME280;37697;52.588;13.394;2023-07-13T12:43:54;100940.23;;;26.98;36.93
51617;BME280;37697;52.588;13.394;2023-07-13T12:48:59;100936.20;;;27.27;36.62
51617;BME280;37697;52.588;13.394;2023-07-13T12:54:23;100933.33;;;27.48;36.31
51617;BME280;37697;52.588;13.394;2023-07-13T12:59:31;100933.53;;;27.13;36.02
51617;BME280;37697;52.588;13.394;2023-07-13T13:04:41;100935.02;;;27.05;36.22
51617;BME280;37697;52.588;13.394;2023-07-13T13:09:48;100939.48;;;26.88;35.61
51617;BME280;37697;52.588;13.394;2023-07-13T13:14:53;100935.92;;;26.70;36.56
51617;BME280;37697;52.588;13.394;2023-07-13T13:19:59;100936.00;;;26.89;36.57
51617;BME280;37697;52.588;13.394;2023-07-13T13:25:06;100936.16;;;27.05;35.87
51617;BME280;37697;52.588;13.394;2023-07-13T13:30:15;100934.23;;;26.86;36.19
51617;BME280;37697;52.588;13.394;2023-07-13T13:35:21;100932.38;;;26.86;36.44
51617;BME280;37697;52.588;13.394;2023-07-13T13:40:27;100933.35;;;27.01;36.45
51617;BME280;37697;52.588;13.394;2023-07-13T13:45:32;100939.31;;;27.18;36.03
51617;BME280;37697;52.588;13.394;2023-07-13T13:50:38;100937.84;;;27.08;36.41
51617;BME280;37697;52.588;13.394;2023-07-13T13:55:43;100941.77;;;27.01;36.16
51617;BME280;37697;52.588;13.394;2023-07-13T14:00:49;100951.41;;;26.71;36.28
51617;BME280;37697;52.588;13.394;2023-07-13T14:05:56;100947.55;;;26.68;36.79
51617;BME280;37697;52.588;13.394;2023-07-13T14:11:02;100947.65;;;26.57;36.47
51617;BME280;37697;52.588;13.394;2023-07-13T14:16:12;100945.42;;;26.47;36.97
51617;BME280;37697;52.588;13.394;2023-07-13T14:21:21;100949.46;;;26.41;37.02
51617;BME280;37697;52.588;13.394;2023-07-13T14:26:27;100958.22;;;26.27;36.95
51617;BME280;37697;52.588;13.394;2023-07-13T14:31:33;100959.76;;;26.24;36.78
51617;BME280;37697;52.588;13.394;2023-07-13T14:36:41;100960.65;;;26.22;37.22
51617;BME280;37697;52.588;13.394;2023-07-13T14:41:49;100957.83;;;26.12;37.22
51617;BME280;37697;52.588;13.394;2023-07-13T14:46:56;100951.15;;;26.03;37.11
51617;BME280;37697;52.588;13.394;2023-07-13T14:52:05;100949.15;;;26.03;37.55
51617;BME280;37697;52.588;13.394;2023-07-13T14:57:17;100954.23;;;26.02;37.01
51617;BME280;37697;52.588;13.394;2023-07-13T15:02:29;100950.98;;;25.89;36.29
51617;BME280;37697;52.588;13.394;2023-07-13T15:07:36;100957.42;;;25.87;36.12
51617;BME280;37697;52.588;13.394;2023-07-13T15:12:41;100947.83;;;25.85;35.70
51617;BME280;37697;52.588;13.394;2023-07-13T15:17:48;100944.94;;;25.82;36.09
51617;BME280;37697;52.588;13.394;2023-07-13T15:22:53;100943.88;;;25.82;36.10
51617;BME280;37697;52.588;13.394;2023-07-13T15:27:59;100944.05;;;25.82;36.46
51617;BME280;37697;52.588;13.394;2023-07-13T15:33:13;100940.10;;;25.82;36.64
51617;BME280;37697;52.588;13.394;2023-07-13T15:38:21;100939.05;;;25.75;36.52
51617;BME280;37697;52.588;13.394;2023-07-13T15:43:28;100938.58;;;25.71;36.69
51617;BME280;37697;52.588;13.394;2023-07-13T15:48:37;100939.78;;;25.70;36.80
51617;BME280;37697;52.588;13.394;2023-07-13T15:53:42;100932.84;;;25.66;36.87
51617;BME280;37697;52.588;13.394;2023-07-13T15:58:48;100938.25;;;25.70;36.63
51617;BME280;37697;52.588;13.394;2023-07-13T16:03:53;100935.90;;;25.56;36.63
51617;BME280;37697;52.588;13.394;2023-07-13T16:09:00;100936.80;;;25.23;36.93
51617;BME280;37697;52.588;13.394;2023-07-13T16:14:08;100939.98;;;25.13;37.11
51617;BME280;37697;52.588;13.394;2023-07-13T16:19:18;100935.41;;;25.11;37.24
51617;BME280;37697;52.588;13.394;2023-07-13T16:24:24;100934.44;;;25.12;37.47
51617;BME280;37697;52.588;13.394;2023-07-13T16:29:31;100939.28;;;25.15;37.50
51617;BME280;37697;52.588;13.394;2023-07-13T16:34:38;100948.09;;;25.02;37.23
51617;BME280;37697;52.588;13.394;2023-07-13T16:39:50;100949.25;;;24.67;37.63
51617;BME280;37697;52.588;13.394;2023-07-13T16:44:58;100953.60;;;24.44;37.74
51617;BME280;37697;52.588;13.394;2023-07-13T16:50:04;100968.13;;;24.24;38.36
51617;BME280;37697;52.588;13.394;2023-07-13T16:55:17;100969.05;;;24.06;38.42
51617;BME280;37697;52.588;13.394;2023-07-13T17:00:25;100982.98;;;23.91;38.62
51617;BME280;37697;52.588;13.394;2023-07-13T17:05:38;101036.08;;;23.67;40.73
51617;BME280;37697;52.588;13.394;2023-07-13T17:10:49;101082.68;;;22.42;45.61
51617;BME280;37697;52.588;13.394;2023-07-13T17:15:55;101090.61;;;21.04;49.26
51617;BME280;37697;52.588;13.394;2023-07-13T17:21:02;101103.07;;;20.26;52.05
51617;BME280;37697;52.588;13.394;2023-07-13T17:26:09;101116.20;;;19.84;53.63
51617;BME280;37697;52.588;13.394;2023-07-13T17:31:19;101127.27;;;19.50;54.89
51617;BME280;37697;52.588;13.394;2023-07-13T17:36:27;101125.06;;;19.18;55.73
51617;BME280;37697;52.588;13.394;2023-07-13T17:41:34;101146.40;;;19.04;57.26
51617;BME280;37697;52.588;13.394;2023-07-13T17:46:39;101151.16;;;19.00;58.07
51617;BME280;37697;52.588;13.394;2023-07-13T17:51:47;101147.60;;;18.86;58.86
51617;BME280;37697;52.588;13.394;2023-07-13T17:56:54;101151.55;;;18.76;59.78
51617;BME280;37697;52.588;13.394;2023-07-13T18:01:59;101159.48;;;18.60;60.40
51617;BME280;37697;52.588;13.394;2023-07-13T18:13:43;101143.67;;;18.47;62.02
51617;BME280;37697;52.588;13.394;2023-07-13T18:18:49;101133.60;;;18.51;62.91
51617;BME280;37697;52.588;13.394;2023-07-13T18:23:55;101140.27;;;18.62;63.42
51617;BME280;37697;52.588;13.394;2023-07-13T18:29:00;101136.16;;;18.59;63.41
51617;BME280;37697;52.588;13.394;2023-07-13T18:34:09;101137.14;;;18.52;63.51
51617;BME280;37697;52.588;13.394;2023-07-13T18:39:16;101144.80;;;18.43;63.65
51617;BME280;37697;52.588;13.394;2023-07-13T18:44:22;101148.93;;;18.35;64.29
51617;BME280;37697;52.588;13.394;2023-07-13T18:49:31;101144.88;;;18.35;64.58
51617;BME280;37697;52.588;13.394;2023-07-13T18:54:39;101148.32;;;18.29;64.62
51617;BME280;37697;52.588;13.394;2023-07-13T18:59:46;101153.48;;;18.26;64.82
51617;BME280;37697;52.588;13.394;2023-07-13T19:04:51;101158.65;;;18.26;65.16
51617;BME280;37697;52.588;13.394;2023-07-13T19:09:58;101156.59;;;18.21;65.59
51617;BME280;37697;52.588;13.394;2023-07-13T19:15:17;101165.00;;;18.13;65.52
51617;BME280;37697;52.588;13.394;2023-07-13T19:20:25;101172.07;;;18.01;65.80
51617;BME280;37697;52.588;13.394;2023-07-13T19:25:31;101175.59;;;17.89;66.16
51617;BME280;37697;52.588;13.394;2023-07-13T19:30:37;101187.86;;;17.75;66.45
51617;BME280;37697;52.588;13.394;2023-07-13T19:35:42;101191.85;;;17.64;66.65
51617;BME280;37697;52.588;13.394;2023-07-13T19:40:48;101202.28;;;17.54;66.95
51617;BME280;37697;52.588;13.394;2023-07-13T19:45:53;101209.77;;;17.44;67.40
51617;BME280;37697;52.588;13.394;2023-07-13T19:50:59;101217.91;;;17.34;67.59
51617;BME280;37697;52.588;13.394;2023-07-13T19:56:06;101227.86;;;17.24;67.91
51617;BME280;37697;52.588;13.394;2023-07-13T20:01:13;101234.10;;;17.15;68.25
51617;BME280;37697;52.588;13.394;2023-07-13T20:06:31;101237.83;;;17.03;68.49
51617;BME280;37697;52.588;13.394;2023-07-13T20:11:42;101238.41;;;16.92;68.88
51617;BME280;37697;52.588;13.394;2023-07-13T20:16:51;101242.69;;;16.88;69.41
51617;BME280;37697;52.588;13.394;2023-07-13T20:22:00;101250.01;;;16.86;69.84
51617;BME280;37697;52.588;13.394;2023-07-13T20:27:06;101253.69;;;16.83;70.05
51617;BME280;37697;52.588;13.394;2023-07-13T20:32:13;101257.25;;;16.79;70.40
51617;BME280;37697;52.588;13.394;2023-07-13T20:37:28;101261.63;;;16.74;70.56
51617;BME280;37697;52.588;13.394;2023-07-13T20:42:34;101257.77;;;16.66;70.68
51617;BME280;37697;52.588;13.394;2023-07-13T20:47:40;101253.65;;;16.60;70.90
51617;BME280;37697;52.588;13.394;2023-07-13T20:52:47;101260.09;;;16.51;71.01
51617;BME280;37697;52.588;13.394;2023-07-13T20:57:54;101269.38;;;16.38;71.25
51617;BME280;37697;52.588;13.394;2023-07-13T21:03:02;101273.53;;;16.28;71.49
51617;BME280;37697;52.588;13.394;2023-07-13T21:08:12;101275.91;;;16.22;71.85
51617;BME280;37697;52.588;13.394;2023-07-13T21:13:18;101280.69;;;16.10;72.08
51617;BME280;37697;52.588;13.394;2023-07-13T21:18:26;101291.70;;;16.02;72.27
51617;BME280;37697;52.588;13.394;2023-07-13T21:23:33;101294.81;;;15.96;72.38
51617;BME280;37697;52.588;13.394;2023-07-13T21:28:40;101295.36;;;15.89;72.72
51617;BME280;37697;52.588;13.394;2023-07-13T21:33:46;101290.33;;;15.83;73.14
51617;BME280;37697;52.588;13.394;2023-07-13T21:38:55;101290.43;;;15.78;73.36
51617;BME280;37697;52.588;13.394;2023-07-13T21:44:12;101291.52;;;15.76;73.76
51617;BME280;37697;52.588;13.394;2023-07-13T21:49:21;101285.52;;;15.75;74.08
51617;BME280;37697;52.588;13.394;2023-07-13T21:54:27;101291.36;;;15.71;74.28
51617;BME280;37697;52.588;13.394;2023-07-13T21:59:32;101290.45;;;15.69;74.46
51617;BME280;37697;52.588;13.394;2023-07-13T22:04:38;101290.73;;;15.65;74.61
51617;BME280;37697;52.588;13.394;2023-07-13T22:09:44;101298.74;;;15.59;74.82
51617;BME280;37697;52.588;13.394;2023-07-13T22:14:49;101299.61;;;15.55;74.88
51617;BME280;37697;52.588;13.394;2023-07-13T22:19:54;101297.17;;;15.52;75.30
51617;BME280;37697;52.588;13.394;2023-07-13T22:25:02;101297.99;;;15.50;75.54
51617;BME280;37697;52.588;13.394;2023-07-13T22:30:13;101298.77;;;15.50;75.86
51617;BME280;37697;52.588;13.394;2023-07-13T22:35:19;101293.70;;;15.51;76.04
51617;BME280;37697;52.588;13.394;2023-07-13T22:40:24;101290.41;;;15.51;76.40
51617;BME280;37697;52.588;13.394;2023-07-13T22:45:30;101282.20;;;15.53;76.67
51617;BME280;37697;52.588;13.394;2023-07-13T22:50:35;101287.25;;;15.53;76.92
51617;BME280;37697;52.588;13.394;2023-07-13T22:55:42;101285.62;;;15.52;76.97
51617;BME280;37697;52.588;13.394;2023-07-13T23:00:47;101286.00;;;15.49;76.97
51617;BME280;37697;52.588;13.394;2023-07-13T23:05:53;101289.31;;;15.43;76.92
51617;BME280;37697;52.588;13.394;2023-07-13T23:10:59;101298.34;;;15.38;76.87
51617;BME280;37697;52.588;13.394;2023-07-13T23:16:11;101299.38;;;15.32;76.71
51617;BME280;37697;52.588;13.394;2023-07-13T23:21:19;101304.35;;;15.25;76.69
51617;BME280;37697;52.588;13.394;2023-07-13T23:26:27;101306.73;;;15.17;76.70
51617;BME280;37697;52.588;13.394;2023-07-13T23:31:33;101309.04;;;15.12;76.73
51617;BME280;37697;52.588;13.394;2023-07-13T23:36:39;101309.63;;;15.04;76.75
51617;BME280;37697;52.588;13.394;2023-07-13T23:41:45;101310.55;;;14.99;76.74
51617;BME280;37697;52.588;13.394;2023-07-13T23:46:53;101311.88;;;14.93;76.69
51617;BME280;37697;52.588;13.394;2023-07-13T23:52:03;101310.55;;;14.85;76.70
51617;BME280;37697;52.588;13.394;2023-07-13T23:57:10;101320.23;;;14.79;76.81
